sensor_id;sensor_type;location;lat;lon;timestamp;P1;durP1;ratioP1;P2;durP2;ratioP2
19280;SDS011;9774;52.034;5.342;2023-05-07T00:00:36;4.32;;;3.92;;
19280;SDS011;9774;52.034;5.342;2023-05-07T00:03:04;4.25;;;3.72;;
19280;SDS011;9774;52.034;5.342;2023-05-07T00:05:31;4.15;;;3.53;;
19280;SDS011;9774;52.034;5.342;2023-05-07T00:07:58;4.28;;;3.72;;
19280;SDS011;9774;52.034;5.342;2023-05-07T00:10:26;5.47;;;4.38;;
19280;SDS011;9774;52.034;5.342;2023-05-07T00:12:53;4.45;;;4.00;;
19280;SDS011;9774;52.034;5.342;2023-05-07T00:15:22;4.45;;;3.85;;
19280;SDS011;9774;52.034;5.342;2023-05-07T00:17:49;4.25;;;3.85;;
19280;SDS011;9774;52.034;5.342;2023-05-07T00:20:16;4.03;;;3.65;;
19280;SDS011;9774;52.034;5.342;2023-05-07T00:22:43;5.53;;;3.58;;
19280;SDS011;9774;52.034;5.342;2023-05-07T00:25:11;4.22;;;3.75;;
19280;SDS011;9774;52.034;5.342;2023-05-07T00:27:38;4.75;;;4.22;;
19280;SDS011;9774;52.034;5.342;2023-05-07T00:30:06;6.88;;;3.53;;
19280;SDS011;9774;52.034;5.342;2023-05-07T00:32:35;4.68;;;3.17;;
19280;SDS011;9774;52.034;5.342;2023-05-07T00:35:03;3.38;;;3.08;;
19280;SDS011;9774;52.034;5.342;2023-05-07T00:37:31;3.50;;;3.20;;
19280;SDS011;9774;52.034;5.342;2023-05-07T00:39:58;5.60;;;3.85;;
19280;SDS011;9774;52.034;5.342;2023-05-07T00:42:28;5.45;;;3.47;;
19280;SDS011;9774;52.034;5.342;2023-05-07T00:44:57;4.78;;;3.63;;
19280;SDS011;9774;52.034;5.342;2023-05-07T00:47:25;3.80;;;3.40;;
19280;SDS011;9774;52.034;5.342;2023-05-07T00:49:53;3.72;;;3.35;;
19280;SDS011;9774;52.034;5.342;2023-05-07T00:52:24;3.40;;;3.10;;
19280;SDS011;9774;52.034;5.342;2023-05-07T00:54:52;4.07;;;3.60;;
19280;SDS011;9774;52.034;5.342;2023-05-07T00:57:21;4.68;;;3.88;;
19280;SDS011;9774;52.034;5.342;2023-05-07T00:59:50;6.25;;;3.42;;
19280;SDS011;9774;52.034;5.342;2023-05-07T01:02:18;3.58;;;2.85;;
19280;SDS011;9774;52.034;5.342;2023-05-07T01:04:45;4.45;;;3.28;;
19280;SDS011;9774;52.034;5.342;2023-05-07T01:07:14;3.42;;;3.13;;
19280;SDS011;9774;52.034;5.342;2023-05-07T01:09:42;3.47;;;3.13;;
19280;SDS011;9774;52.034;5.342;2023-05-07T01:12:09;4.10;;;3.42;;
19280;SDS011;9774;52.034;5.342;2023-05-07T01:14:37;3.92;;;3.47;;
19280;SDS011;9774;52.034;5.342;2023-05-07T01:17:04;3.13;;;2.80;;
19280;SDS011;9774;52.034;5.342;2023-05-07T01:19:33;3.35;;;2.85;;
19280;SDS011;9774;52.034;5.342;2023-05-07T01:22:02;3.67;;;3.03;;
19280;SDS011;9774;52.034;5.342;2023-05-07T01:24:34;3.95;;;3.10;;
19280;SDS011;9774;52.034;5.342;2023-05-07T01:27:04;3.55;;;2.95;;
19280;SDS011;9774;52.034;5.342;2023-05-07T01:29:31;3.95;;;3.08;;
19280;SDS011;9774;52.034;5.342;2023-05-07T01:31:59;4.07;;;3.67;;
19280;SDS011;9774;52.034;5.342;2023-05-07T01:34:28;4.13;;;3.10;;
19280;SDS011;9774;52.034;5.342;2023-05-07T01:36:58;3.67;;;2.80;;
19280;SDS011;9774;52.034;5.342;2023-05-07T01:39:27;4.32;;;3.15;;
19280;SDS011;9774;52.034;5.342;2023-05-07T01:41:57;3.92;;;3.20;;
19280;SDS011;9774;52.034;5.342;2023-05-07T01:44:25;4.07;;;3.17;;
19280;SDS011;9774;52.034;5.342;2023-05-07T01:46:53;3.13;;;2.85;;
19280;SDS011;9774;52.034;5.342;2023-05-07T01:49:21;3.03;;;2.78;;
19280;SDS011;9774;52.034;5.342;2023-05-07T01:51:49;3.50;;;3.03;;
19280;SDS011;9774;52.034;5.342;2023-05-07T01:54:17;5.07;;;3.20;;
19280;SDS011;9774;52.034;5.342;2023-05-07T01:56:45;4.30;;;3.20;;
19280;SDS011;9774;52.034;5.342;2023-05-07T01:59:14;3.72;;;3.40;;
19280;SDS011;9774;52.034;5.342;2023-05-07T02:01:41;3.05;;;2.70;;
19280;SDS011;9774;52.034;5.342;2023-05-07T02:04:09;3.65;;;3.25;;
19280;SDS011;9774;52.034;5.342;2023-05-07T02:06:36;3.72;;;3.30;;
19280;SDS011;9774;52.034;5.342;2023-05-07T02:09:03;3.83;;;3.42;;
19280;SDS011;9774;52.034;5.342;2023-05-07T02:11:30;5.00;;;3.75;;
19280;SDS011;9774;52.034;5.342;2023-05-07T02:13:58;3.58;;;3.28;;
19280;SDS011;9774;52.034;5.342;2023-05-07T02:16:26;5.28;;;3.47;;
19280;SDS011;9774;52.034;5.342;2023-05-07T02:18:53;4.10;;;3.20;;
19280;SDS011;9774;52.034;5.342;2023-05-07T02:21:21;4.63;;;3.80;;
19280;SDS011;9774;52.034;5.342;2023-05-07T02:23:48;4.07;;;3.55;;
19280;SDS011;9774;52.034;5.342;2023-05-07T02:26:16;3.92;;;3.20;;
19280;SDS011;9774;52.034;5.342;2023-05-07T02:28:43;4.00;;;3.50;;
19280;SDS011;9774;52.034;5.342;2023-05-07T02:31:10;5.05;;;3.90;;
19280;SDS011;9774;52.034;5.342;2023-05-07T02:33:39;4.88;;;3.60;;
19280;SDS011;9774;52.034;5.342;2023-05-07T02:36:06;5.05;;;3.65;;
19280;SDS011;9774;52.034;5.342;2023-05-07T02:38:34;4.65;;;3.83;;
19280;SDS011;9774;52.034;5.342;2023-05-07T02:41:02;4.47;;;4.07;;
19280;SDS011;9774;52.034;5.342;2023-05-07T02:43:29;4.28;;;3.55;;
19280;SDS011;9774;52.034;5.342;2023-05-07T02:46:02;5.10;;;4.05;;
19280;SDS011;9774;52.034;5.342;2023-05-07T02:48:30;4.93;;;3.80;;
19280;SDS011;9774;52.034;5.342;2023-05-07T02:51:00;4.47;;;4.07;;
19280;SDS011;9774;52.034;5.342;2023-05-07T02:53:28;5.40;;;3.78;;
19280;SDS011;9774;52.034;5.342;2023-05-07T02:55:55;4.28;;;3.88;;
19280;SDS011;9774;52.034;5.342;2023-05-07T02:58:23;6.38;;;4.32;;
19280;SDS011;9774;52.034;5.342;2023-05-07T03:00:51;4.22;;;3.28;;
19280;SDS011;9774;52.034;5.342;2023-05-07T03:03:19;4.57;;;4.05;;
19280;SDS011;9774;52.034;5.342;2023-05-07T03:05:46;4.43;;;3.75;;
19280;SDS011;9774;52.034;5.342;2023-05-07T03:08:15;4.75;;;3.88;;
19280;SDS011;9774;52.034;5.342;2023-05-07T03:10:42;4.07;;;3.67;;
19280;SDS011;9774;52.034;5.342;2023-05-07T03:13:10;3.88;;;3.50;;
19280;SDS011;9774;52.034;5.342;2023-05-07T03:15:37;5.43;;;4.18;;
19280;SDS011;9774;52.034;5.342;2023-05-07T03:18:04;6.70;;;4.60;;
19280;SDS011;9774;52.034;5.342;2023-05-07T03:20:32;5.20;;;3.90;;
19280;SDS011;9774;52.034;5.342;2023-05-07T03:22:59;4.97;;;3.85;;
19280;SDS011;9774;52.034;5.342;2023-05-07T03:25:28;4.80;;;4.30;;
19280;SDS011;9774;52.034;5.342;2023-05-07T03:27:55;4.82;;;4.00;;
19280;SDS011;9774;52.034;5.342;2023-05-07T03:30:23;5.90;;;4.47;;
19280;SDS011;9774;52.034;5.342;2023-05-07T03:32:50;5.18;;;4.63;;
19280;SDS011;9774;52.034;5.342;2023-05-07T03:35:19;4.80;;;4.18;;
19280;SDS011;9774;52.034;5.342;2023-05-07T03:37:46;7.45;;;5.03;;
19280;SDS011;9774;52.034;5.342;2023-05-07T03:40:15;5.55;;;4.57;;
19280;SDS011;9774;52.034;5.342;2023-05-07T03:42:43;6.03;;;4.90;;
19280;SDS011;9774;52.034;5.342;2023-05-07T03:45:11;7.32;;;4.88;;
19280;SDS011;9774;52.034;5.342;2023-05-07T03:47:38;6.85;;;5.55;;
19280;SDS011;9774;52.034;5.342;2023-05-07T03:50:05;5.88;;;4.75;;
19280;SDS011;9774;52.034;5.342;2023-05-07T03:52:33;6.18;;;4.72;;
19280;SDS011;9774;52.034;5.342;2023-05-07T03:55:00;5.70;;;5.10;;
19280;SDS011;9774;52.034;5.342;2023-05-07T03:57:28;7.00;;;4.85;;
19280;SDS011;9774;52.034;5.342;2023-05-07T03:59:57;5.32;;;4.82;;
19280;SDS011;9774;52.034;5.342;2023-05-07T04:02:24;7.60;;;5.40;;
19280;SDS011;9774;52.034;5.342;2023-05-07T04:04:51;6.22;;;5.30;;
19280;SDS011;9774;52.034;5.342;2023-05-07T04:07:19;8.05;;;5.57;;
19280;SDS011;9774;52.034;5.342;2023-05-07T04:09:46;7.38;;;5.88;;
19280;SDS011;9774;52.034;5.342;2023-05-07T04:12:13;5.43;;;4.72;;
19280;SDS011;9774;52.034;5.342;2023-05-07T04:14:41;6.72;;;6.03;;
19280;SDS011;9774;52.034;5.342;2023-05-07T04:17:09;7.13;;;5.80;;
19280;SDS011;9774;52.034;5.342;2023-05-07T04:19:37;5.70;;;5.18;;
19280;SDS011;9774;52.034;5.342;2023-05-07T04:22:04;12.35;;;6.00;;
19280;SDS011;9774;52.034;5.342;2023-05-07T04:24:31;5.18;;;4.68;;
19280;SDS011;9774;52.034;5.342;2023-05-07T04:26:59;7.10;;;5.57;;
19280;SDS011;9774;52.034;5.342;2023-05-07T04:29:26;5.97;;;5.18;;
19280;SDS011;9774;52.034;5.342;2023-05-07T04:31:54;6.97;;;6.03;;
19280;SDS011;9774;52.034;5.342;2023-05-07T04:34:23;8.60;;;6.25;;
19280;SDS011;9774;52.034;5.342;2023-05-07T04:36:50;5.85;;;5.25;;
19280;SDS011;9774;52.034;5.342;2023-05-07T04:39:18;6.03;;;5.28;;
19280;SDS011;9774;52.034;5.342;2023-05-07T04:41:45;7.65;;;5.95;;
19280;SDS011;9774;52.034;5.342;2023-05-07T04:44:12;6.28;;;5.65;;
19280;SDS011;9774;52.034;5.342;2023-05-07T04:46:39;6.57;;;5.88;;
19280;SDS011;9774;52.034;5.342;2023-05-07T04:49:07;5.78;;;5.13;;
19280;SDS011;9774;52.034;5.342;2023-05-07T04:51:36;7.82;;;6.18;;
19280;SDS011;9774;52.034;5.342;2023-05-07T04:54:07;8.18;;;6.07;;
19280;SDS011;9774;52.034;5.342;2023-05-07T04:56:35;5.82;;;5.32;;
19280;SDS011;9774;52.034;5.342;2023-05-07T04:59:02;8.68;;;6.78;;
19280;SDS011;9774;52.034;5.342;2023-05-07T05:01:29;6.68;;;5.78;;
19280;SDS011;9774;52.034;5.342;2023-05-07T05:03:57;6.07;;;5.32;;
19280;SDS011;9774;52.034;5.342;2023-05-07T05:06:25;7.30;;;5.65;;
19280;SDS011;9774;52.034;5.342;2023-05-07T05:08:53;6.75;;;5.43;;
19280;SDS011;9774;52.034;5.342;2023-05-07T05:11:21;6.88;;;5.57;;
19280;SDS011;9774;52.034;5.342;2023-05-07T05:13:48;7.68;;;5.95;;
19280;SDS011;9774;52.034;5.342;2023-05-07T05:16:16;8.40;;;6.95;;
19280;SDS011;9774;52.034;5.342;2023-05-07T05:18:43;7.25;;;6.22;;
19280;SDS011;9774;52.034;5.342;2023-05-07T05:21:10;6.70;;;5.68;;
19280;SDS011;9774;52.034;5.342;2023-05-07T05:23:38;6.82;;;6.13;;
19280;SDS011;9774;52.034;5.342;2023-05-07T05:26:06;8.10;;;6.07;;
19280;SDS011;9774;52.034;5.342;2023-05-07T05:28:34;7.72;;;6.10;;
19280;SDS011;9774;52.034;5.342;2023-05-07T05:31:01;7.10;;;6.40;;
19280;SDS011;9774;52.034;5.342;2023-05-07T05:33:28;5.93;;;5.35;;
19280;SDS011;9774;52.034;5.342;2023-05-07T05:35:55;10.32;;;6.10;;
19280;SDS011;9774;52.034;5.342;2023-05-07T05:38:23;6.68;;;5.45;;
19280;SDS011;9774;52.034;5.342;2023-05-07T05:40:50;8.13;;;5.85;;
19280;SDS011;9774;52.034;5.342;2023-05-07T05:43:19;7.80;;;5.70;;
19280;SDS011;9774;52.034;5.342;2023-05-07T05:45:46;6.55;;;5.60;;
19280;SDS011;9774;52.034;5.342;2023-05-07T05:48:14;6.78;;;6.10;;
19280;SDS011;9774;52.034;5.342;2023-05-07T05:50:41;6.20;;;5.60;;
19280;SDS011;9774;52.034;5.342;2023-05-07T05:53:09;6.88;;;5.65;;
19280;SDS011;9774;52.034;5.342;2023-05-07T05:55:36;7.40;;;6.22;;
19280;SDS011;9774;52.034;5.342;2023-05-07T05:58:03;6.90;;;5.93;;
19280;SDS011;9774;52.034;5.342;2023-05-07T06:00:32;6.32;;;5.72;;
19280;SDS011;9774;52.034;5.342;2023-05-07T06:03:00;6.53;;;5.93;;
19280;SDS011;9774;52.034;5.342;2023-05-07T06:05:27;8.10;;;5.50;;
19280;SDS011;9774;52.034;5.342;2023-05-07T06:07:54;6.72;;;6.07;;
19280;SDS011;9774;52.034;5.342;2023-05-07T06:10:22;7.55;;;5.30;;
19280;SDS011;9774;52.034;5.342;2023-05-07T06:12:51;8.30;;;6.10;;
19280;SDS011;9774;52.034;5.342;2023-05-07T06:15:18;9.50;;;6.72;;
19280;SDS011;9774;52.034;5.342;2023-05-07T06:17:47;11.73;;;6.38;;
19280;SDS011;9774;52.034;5.342;2023-05-07T06:20:14;8.52;;;6.45;;
19280;SDS011;9774;52.034;5.342;2023-05-07T06:22:42;10.98;;;6.32;;
19280;SDS011;9774;52.034;5.342;2023-05-07T06:25:09;8.55;;;6.10;;
19280;SDS011;9774;52.034;5.342;2023-05-07T06:27:36;7.18;;;6.30;;
19280;SDS011;9774;52.034;5.342;2023-05-07T06:30:05;6.72;;;6.10;;
19280;SDS011;9774;52.034;5.342;2023-05-07T06:32:33;8.88;;;5.95;;
19280;SDS011;9774;52.034;5.342;2023-05-07T06:35:02;7.70;;;6.72;;
19280;SDS011;9774;52.034;5.342;2023-05-07T06:37:30;7.07;;;6.13;;
19280;SDS011;9774;52.034;5.342;2023-05-07T06:39:57;7.78;;;6.70;;
19280;SDS011;9774;52.034;5.342;2023-05-07T06:42:25;6.60;;;6.00;;
19280;SDS011;9774;52.034;5.342;2023-05-07T06:44:52;7.35;;;5.75;;
19280;SDS011;9774;52.034;5.342;2023-05-07T06:47:20;7.60;;;6.03;;
19280;SDS011;9774;52.034;5.342;2023-05-07T06:49:47;7.18;;;5.95;;
19280;SDS011;9774;52.034;5.342;2023-05-07T06:52:16;8.55;;;6.05;;
19280;SDS011;9774;52.034;5.342;2023-05-07T06:54:43;6.60;;;5.78;;
19280;SDS011;9774;52.034;5.342;2023-05-07T06:57:10;6.10;;;5.50;;
19280;SDS011;9774;52.034;5.342;2023-05-07T06:59:38;6.22;;;5.50;;
19280;SDS011;9774;52.034;5.342;2023-05-07T07:02:05;7.38;;;6.18;;
19280;SDS011;9774;52.034;5.342;2023-05-07T07:04:33;7.72;;;6.28;;
19280;SDS011;9774;52.034;5.342;2023-05-07T07:07:01;6.57;;;5.95;;
19280;SDS011;9774;52.034;5.342;2023-05-07T07:09:29;7.13;;;6.05;;
19280;SDS011;9774;52.034;5.342;2023-05-07T07:11:57;6.35;;;5.57;;
19280;SDS011;9774;52.034;5.342;2023-05-07T07:14:24;6.93;;;5.97;;
19280;SDS011;9774;52.034;5.342;2023-05-07T07:16:52;6.22;;;5.68;;
19280;SDS011;9774;52.034;5.342;2023-05-07T07:19:19;6.97;;;5.78;;
19280;SDS011;9774;52.034;5.342;2023-05-07T07:21:48;8.63;;;6.50;;
19280;SDS011;9774;52.034;5.342;2023-05-07T07:24:15;6.38;;;5.78;;
19280;SDS011;9774;52.034;5.342;2023-05-07T07:26:47;8.57;;;6.03;;
19280;SDS011;9774;52.034;5.342;2023-05-07T07:29:15;6.13;;;5.28;;
19280;SDS011;9774;52.034;5.342;2023-05-07T07:31:43;6.35;;;5.63;;
19280;SDS011;9774;52.034;5.342;2023-05-07T07:34:11;6.43;;;5.72;;
19280;SDS011;9774;52.034;5.342;2023-05-07T07:36:41;7.45;;;6.75;;
19280;SDS011;9774;52.034;5.342;2023-05-07T07:39:08;6.45;;;5.85;;
19280;SDS011;9774;52.034;5.342;2023-05-07T07:41:35;7.88;;;5.78;;
19280;SDS011;9774;52.034;5.342;2023-05-07T07:44:04;7.55;;;6.75;;
19280;SDS011;9774;52.034;5.342;2023-05-07T07:46:32;6.82;;;5.88;;
19280;SDS011;9774;52.034;5.342;2023-05-07T07:48:59;7.68;;;6.35;;
19280;SDS011;9774;52.034;5.342;2023-05-07T07:51:27;7.78;;;5.97;;
19280;SDS011;9774;52.034;5.342;2023-05-07T07:53:54;6.38;;;5.78;;
19280;SDS011;9774;52.034;5.342;2023-05-07T07:56:22;7.25;;;5.72;;
19280;SDS011;9774;52.034;5.342;2023-05-07T07:58:50;6.55;;;5.88;;
19280;SDS011;9774;52.034;5.342;2023-05-07T08:01:18;6.68;;;5.70;;
19280;SDS011;9774;52.034;5.342;2023-05-07T08:03:46;7.30;;;5.65;;
19280;SDS011;9774;52.034;5.342;2023-05-07T08:06:13;7.10;;;6.28;;
19280;SDS011;9774;52.034;5.342;2023-05-07T08:08:40;6.97;;;6.30;;
19280;SDS011;9774;52.034;5.342;2023-05-07T08:11:07;6.70;;;5.72;;
19280;SDS011;9774;52.034;5.342;2023-05-07T08:13:35;7.22;;;6.15;;
19280;SDS011;9774;52.034;5.342;2023-05-07T08:16:04;6.50;;;5.85;;
19280;SDS011;9774;52.034;5.342;2023-05-07T08:18:32;8.18;;;6.43;;
19280;SDS011;9774;52.034;5.342;2023-05-07T08:21:00;7.00;;;6.30;;
19280;SDS011;9774;52.034;5.342;2023-05-07T08:23:27;7.18;;;5.80;;
19280;SDS011;9774;52.034;5.342;2023-05-07T08:25:55;7.07;;;6.30;;
19280;SDS011;9774;52.034;5.342;2023-05-07T08:28:22;6.68;;;6.03;;
19280;SDS011;9774;52.034;5.342;2023-05-07T08:30:50;6.03;;;5.43;;
19280;SDS011;9774;52.034;5.342;2023-05-07T08:33:17;6.38;;;5.72;;
19280;SDS011;9774;52.034;5.342;2023-05-07T08:35:46;5.75;;;5.18;;
19280;SDS011;9774;52.034;5.342;2023-05-07T08:38:14;7.47;;;6.00;;
19280;SDS011;9774;52.034;5.342;2023-05-07T08:40:41;5.90;;;5.10;;
19280;SDS011;9774;52.034;5.342;2023-05-07T08:43:08;7.70;;;5.13;;
19280;SDS011;9774;52.034;5.342;2023-05-07T08:45:40;5.82;;;5.20;;
19280;SDS011;9774;52.034;5.342;2023-05-07T08:48:08;6.57;;;5.60;;
19280;SDS011;9774;52.034;5.342;2023-05-07T08:50:42;4.65;;;4.22;;
19280;SDS011;9774;52.034;5.342;2023-05-07T08:53:11;6.40;;;5.78;;
19280;SDS011;9774;52.034;5.342;2023-05-07T08:55:39;6.68;;;5.20;;
19280;SDS011;9774;52.034;5.342;2023-05-07T08:58:07;7.18;;;4.50;;
19280;SDS011;9774;52.034;5.342;2023-05-07T09:00:34;6.68;;;4.10;;
19280;SDS011;9774;52.034;5.342;2023-05-07T09:03:03;6.47;;;4.25;;
19280;SDS011;9774;52.034;5.342;2023-05-07T09:05:30;6.82;;;4.40;;
19280;SDS011;9774;52.034;5.342;2023-05-07T09:07:58;5.82;;;4.55;;
19280;SDS011;9774;52.034;5.342;2023-05-07T09:10:27;5.28;;;4.55;;
19280;SDS011;9774;52.034;5.342;2023-05-07T09:12:55;6.28;;;5.32;;
19280;SDS011;9774;52.034;5.342;2023-05-07T09:15:22;7.68;;;5.80;;
19280;SDS011;9774;52.034;5.342;2023-05-07T09:17:50;7.05;;;5.07;;
19280;SDS011;9774;52.034;5.342;2023-05-07T09:20:17;7.63;;;5.32;;
19280;SDS011;9774;52.034;5.342;2023-05-07T09:22:45;8.38;;;5.18;;
19280;SDS011;9774;52.034;5.342;2023-05-07T09:25:12;9.75;;;5.95;;
19280;SDS011;9774;52.034;5.342;2023-05-07T09:27:41;6.50;;;5.70;;
19280;SDS011;9774;52.034;5.342;2023-05-07T09:30:08;7.28;;;6.28;;
19280;SDS011;9774;52.034;5.342;2023-05-07T09:32:36;6.30;;;5.70;;
19280;SDS011;9774;52.034;5.342;2023-05-07T09:35:05;7.45;;;6.47;;
19280;SDS011;9774;52.034;5.342;2023-05-07T09:37:40;7.40;;;5.78;;
19280;SDS011;9774;52.034;5.342;2023-05-07T09:40:10;7.22;;;6.50;;
19280;SDS011;9774;52.034;5.342;2023-05-07T09:42:49;9.23;;;7.28;;
19280;SDS011;9774;52.034;5.342;2023-05-07T09:45:21;8.45;;;7.53;;
19280;SDS011;9774;52.034;5.342;2023-05-07T09:47:49;7.35;;;6.63;;
19280;SDS011;9774;52.034;5.342;2023-05-07T09:50:22;11.23;;;7.50;;
19280;SDS011;9774;52.034;5.342;2023-05-07T09:52:52;6.68;;;5.55;;
19280;SDS011;9774;52.034;5.342;2023-05-07T09:55:21;11.65;;;6.60;;
19280;SDS011;9774;52.034;5.342;2023-05-07T09:57:50;6.90;;;6.03;;
19280;SDS011;9774;52.034;5.342;2023-05-07T10:00:19;10.02;;;7.43;;
19280;SDS011;9774;52.034;5.342;2023-05-07T10:02:47;8.57;;;7.22;;
19280;SDS011;9774;52.034;5.342;2023-05-07T10:05:17;7.82;;;7.00;;
19280;SDS011;9774;52.034;5.342;2023-05-07T10:07:45;8.25;;;6.57;;
19280;SDS011;9774;52.034;5.342;2023-05-07T10:10:14;9.60;;;6.70;;
19280;SDS011;9774;52.034;5.342;2023-05-07T10:12:41;8.35;;;7.05;;
19280;SDS011;9774;52.034;5.342;2023-05-07T10:15:11;8.65;;;7.07;;
19280;SDS011;9774;52.034;5.342;2023-05-07T10:17:39;7.28;;;6.18;;
19280;SDS011;9774;52.034;5.342;2023-05-07T10:20:07;6.93;;;6.22;;
19280;SDS011;9774;52.034;5.342;2023-05-07T10:22:37;6.70;;;6.00;;
19280;SDS011;9774;52.034;5.342;2023-05-07T10:25:09;7.05;;;6.38;;
19280;SDS011;9774;52.034;5.342;2023-05-07T10:27:43;7.15;;;6.45;;
19280;SDS011;9774;52.034;5.342;2023-05-07T10:30:20;9.80;;;6.28;;
19280;SDS011;9774;52.034;5.342;2023-05-07T10:32:59;8.07;;;6.45;;
19280;SDS011;9774;52.034;5.342;2023-05-07T10:35:31;6.95;;;6.03;;
19280;SDS011;9774;52.034;5.342;2023-05-07T10:38:03;6.78;;;5.72;;
19280;SDS011;9774;52.034;5.342;2023-05-07T10:40:31;6.15;;;5.55;;
19280;SDS011;9774;52.034;5.342;2023-05-07T10:42:59;6.30;;;5.72;;
19280;SDS011;9774;52.034;5.342;2023-05-07T10:45:30;5.25;;;4.75;;
19280;SDS011;9774;52.034;5.342;2023-05-07T10:48:08;7.82;;;5.40;;
19280;SDS011;9774;52.034;5.342;2023-05-07T10:50:37;5.97;;;5.30;;
19280;SDS011;9774;52.034;5.342;2023-05-07T10:53:24;9.07;;;5.65;;
19280;SDS011;9774;52.034;5.342;2023-05-07T10:58:52;6.70;;;5.28;;
19280;SDS011;9774;52.034;5.342;2023-05-07T11:04:19;5.85;;;5.13;;
19280;SDS011;9774;52.034;5.342;2023-05-07T11:09:56;6.03;;;5.43;;
19280;SDS011;9774;52.034;5.342;2023-05-07T11:15:13;5.80;;;5.20;;
19280;SDS011;9774;52.034;5.342;2023-05-07T11:17:53;9.90;;;6.82;;
19280;SDS011;9774;52.034;5.342;2023-05-07T11:20:33;6.88;;;6.13;;
19280;SDS011;9774;52.034;5.342;2023-05-07T11:26:23;7.05;;;5.45;;
19280;SDS011;9774;52.034;5.342;2023-05-07T11:28:52;6.00;;;5.38;;
19280;SDS011;9774;52.034;5.342;2023-05-07T11:31:20;6.50;;;5.85;;
19280;SDS011;9774;52.034;5.342;2023-05-07T11:33:51;6.93;;;5.28;;
19280;SDS011;9774;52.034;5.342;2023-05-07T11:36:20;4.93;;;4.43;;
19280;SDS011;9774;52.034;5.342;2023-05-07T11:38:51;6.00;;;5.40;;
19280;SDS011;9774;52.034;5.342;2023-05-07T11:41:18;5.32;;;4.70;;
19280;SDS011;9774;52.034;5.342;2023-05-07T11:43:55;7.00;;;5.38;;
19280;SDS011;9774;52.034;5.342;2023-05-07T11:46:23;6.47;;;5.65;;
19280;SDS011;9774;52.034;5.342;2023-05-07T11:48:51;7.38;;;5.07;;
19280;SDS011;9774;52.034;5.342;2023-05-07T11:51:20;6.50;;;5.10;;
19280;SDS011;9774;52.034;5.342;2023-05-07T11:53:48;5.53;;;4.93;;
19280;SDS011;9774;52.034;5.342;2023-05-07T11:56:17;13.30;;;5.68;;
19280;SDS011;9774;52.034;5.342;2023-05-07T11:58:45;6.85;;;4.95;;
19280;SDS011;9774;52.034;5.342;2023-05-07T12:01:14;7.95;;;4.85;;
19280;SDS011;9774;52.034;5.342;2023-05-07T12:03:45;8.63;;;4.95;;
19280;SDS011;9774;52.034;5.342;2023-05-07T12:06:14;5.82;;;5.22;;
19280;SDS011;9774;52.034;5.342;2023-05-07T12:08:43;5.20;;;4.70;;
19280;SDS011;9774;52.034;5.342;2023-05-07T12:11:13;4.88;;;4.40;;
19280;SDS011;9774;52.034;5.342;2023-05-07T12:13:43;9.23;;;4.97;;
19280;SDS011;9774;52.034;5.342;2023-05-07T12:16:10;7.70;;;4.35;;
19280;SDS011;9774;52.034;5.342;2023-05-07T12:18:38;4.35;;;3.83;;
19280;SDS011;9774;52.034;5.342;2023-05-07T12:21:06;3.38;;;2.95;;
19280;SDS011;9774;52.034;5.342;2023-05-07T12:23:35;5.82;;;2.75;;
19280;SDS011;9774;52.034;5.342;2023-05-07T12:26:03;1.70;;;1.60;;
19280;SDS011;9774;52.034;5.342;2023-05-07T12:28:31;5.50;;;2.72;;
19280;SDS011;9774;52.034;5.342;2023-05-07T12:31:04;3.22;;;2.15;;
19280;SDS011;9774;52.034;5.342;2023-05-07T12:33:32;2.67;;;2.05;;
19280;SDS011;9774;52.034;5.342;2023-05-07T12:36:02;5.07;;;2.47;;
19280;SDS011;9774;52.034;5.342;2023-05-07T12:38:40;4.80;;;2.55;;
19280;SDS011;9774;52.034;5.342;2023-05-07T12:41:08;4.60;;;2.67;;
19280;SDS011;9774;52.034;5.342;2023-05-07T12:43:37;5.28;;;2.72;;
19280;SDS011;9774;52.034;5.342;2023-05-07T12:46:05;3.40;;;2.75;;
19280;SDS011;9774;52.034;5.342;2023-05-07T12:48:33;3.35;;;2.33;;
19280;SDS011;9774;52.034;5.342;2023-05-07T12:51:03;3.95;;;2.70;;
19280;SDS011;9774;52.034;5.342;2023-05-07T12:53:32;2.83;;;2.35;;
19280;SDS011;9774;52.034;5.342;2023-05-07T12:56:06;2.63;;;2.10;;
19280;SDS011;9774;52.034;5.342;2023-05-07T12:58:34;4.93;;;2.30;;
19280;SDS011;9774;52.034;5.342;2023-05-07T13:01:04;3.05;;;2.30;;
19280;SDS011;9774;52.034;5.342;2023-05-07T13:03:33;4.15;;;2.50;;
19280;SDS011;9774;52.034;5.342;2023-05-07T13:06:02;2.85;;;2.50;;
19280;SDS011;9774;52.034;5.342;2023-05-07T13:08:31;4.88;;;2.83;;
19280;SDS011;9774;52.034;5.342;2023-05-07T13:11:00;4.28;;;2.90;;
19280;SDS011;9774;52.034;5.342;2023-05-07T13:13:30;3.72;;;3.13;;
19280;SDS011;9774;52.034;5.342;2023-05-07T13:15:58;3.25;;;2.58;;
19280;SDS011;9774;52.034;5.342;2023-05-07T13:18:26;3.50;;;2.88;;
19280;SDS011;9774;52.034;5.342;2023-05-07T13:20:55;3.47;;;2.47;;
19280;SDS011;9774;52.034;5.342;2023-05-07T13:23:23;4.10;;;2.50;;
19280;SDS011;9774;52.034;5.342;2023-05-07T13:25:50;5.35;;;2.78;;
19280;SDS011;9774;52.034;5.342;2023-05-07T13:28:18;3.13;;;2.58;;
19280;SDS011;9774;52.034;5.342;2023-05-07T13:30:47;2.92;;;2.38;;
19280;SDS011;9774;52.034;5.342;2023-05-07T13:33:16;5.28;;;3.05;;
19280;SDS011;9774;52.034;5.342;2023-05-07T13:35:44;2.95;;;2.55;;
19280;SDS011;9774;52.034;5.342;2023-05-07T13:38:11;3.75;;;2.10;;
19280;SDS011;9774;52.034;5.342;2023-05-07T13:40:40;7.03;;;2.25;;
19280;SDS011;9774;52.034;5.342;2023-05-07T13:43:08;3.95;;;2.17;;
19280;SDS011;9774;52.034;5.342;2023-05-07T13:45:35;6.18;;;3.08;;
19280;SDS011;9774;52.034;5.342;2023-05-07T13:48:04;4.65;;;3.67;;
19280;SDS011;9774;52.034;5.342;2023-05-07T13:50:31;3.88;;;3.28;;
19280;SDS011;9774;52.034;5.342;2023-05-07T13:52:59;15.13;;;3.92;;
19280;SDS011;9774;52.034;5.342;2023-05-07T13:55:28;4.93;;;3.95;;
19280;SDS011;9774;52.034;5.342;2023-05-07T13:57:56;5.63;;;3.05;;
19280;SDS011;9774;52.034;5.342;2023-05-07T14:00:24;3.13;;;2.83;;
19280;SDS011;9774;52.034;5.342;2023-05-07T14:02:52;3.20;;;2.78;;
19280;SDS011;9774;52.034;5.342;2023-05-07T14:05:21;2.70;;;2.38;;
19280;SDS011;9774;52.034;5.342;2023-05-07T14:07:49;2.60;;;2.40;;
19280;SDS011;9774;52.034;5.342;2023-05-07T14:10:17;3.65;;;2.30;;
19280;SDS011;9774;52.034;5.342;2023-05-07T14:12:45;1.92;;;1.73;;
19280;SDS011;9774;52.034;5.342;2023-05-07T14:15:13;3.40;;;1.95;;
19280;SDS011;9774;52.034;5.342;2023-05-07T14:17:41;3.08;;;2.15;;
19280;SDS011;9774;52.034;5.342;2023-05-07T14:20:08;5.07;;;2.00;;
19280;SDS011;9774;52.034;5.342;2023-05-07T14:22:38;2.53;;;1.90;;
19280;SDS011;9774;52.034;5.342;2023-05-07T14:25:06;3.20;;;1.90;;
19280;SDS011;9774;52.034;5.342;2023-05-07T14:27:34;3.85;;;2.28;;
19280;SDS011;9774;52.034;5.342;2023-05-07T14:30:01;3.13;;;2.20;;
19280;SDS011;9774;52.034;5.342;2023-05-07T14:32:29;2.22;;;1.50;;
19280;SDS011;9774;52.034;5.342;2023-05-07T14:34:58;3.45;;;1.90;;
19280;SDS011;9774;52.034;5.342;2023-05-07T14:37:25;2.17;;;1.92;;
19280;SDS011;9774;52.034;5.342;2023-05-07T14:39:54;6.60;;;2.60;;
19280;SDS011;9774;52.034;5.342;2023-05-07T14:42:21;4.38;;;2.42;;
19280;SDS011;9774;52.034;5.342;2023-05-07T14:44:49;4.40;;;3.83;;
19280;SDS011;9774;52.034;5.342;2023-05-07T14:47:20;4.50;;;3.53;;
19280;SDS011;9774;52.034;5.342;2023-05-07T14:49:47;4.32;;;3.60;;
19280;SDS011;9774;52.034;5.342;2023-05-07T14:52:15;4.63;;;3.80;;
19280;SDS011;9774;52.034;5.342;2023-05-07T14:54:42;4.13;;;3.28;;
19280;SDS011;9774;52.034;5.342;2023-05-07T14:57:11;3.90;;;3.00;;
19280;SDS011;9774;52.034;5.342;2023-05-07T14:59:41;3.08;;;2.80;;
19280;SDS011;9774;52.034;5.342;2023-05-07T15:02:08;2.83;;;2.47;;
19280;SDS011;9774;52.034;5.342;2023-05-07T15:04:36;3.38;;;2.58;;
19280;SDS011;9774;52.034;5.342;2023-05-07T15:07:05;2.83;;;2.38;;
19280;SDS011;9774;52.034;5.342;2023-05-07T15:09:32;3.75;;;2.38;;
19280;SDS011;9774;52.034;5.342;2023-05-07T15:12:00;3.28;;;2.83;;
19280;SDS011;9774;52.034;5.342;2023-05-07T15:14:28;2.83;;;2.42;;
19280;SDS011;9774;52.034;5.342;2023-05-07T15:16:55;3.95;;;2.63;;
19280;SDS011;9774;52.034;5.342;2023-05-07T15:19:23;4.68;;;2.22;;
19280;SDS011;9774;52.034;5.342;2023-05-07T15:21:54;3.78;;;2.50;;